Time;durP1;ratioP1;P1;durP2;ratioP2;P2;SDS_P1;SDS_P2;PMS_P1;PMS_P2;Temp;Humidity;BMP_temperature;BMP_pressure;BME280_temperature;BME280_humidity;BME280_pressure;Samples;Min_cycle;Max_cycle;Signal;HPM_P1;HPM_P2
2021/06/25 00:00:47;;;;;;;43.17;11.60;;;742.60;1305.60;;;;;;5073747;28;20025;-66
2021/06/25 00:03:13;;;;;;;37.45;9.60;;;742.60;1280.00;;;;;;5074142;28;20025;-67
2021/06/25 00:05:39;;;;;;;38.92;9.57;;;742.60;1280.00;;;;;;5073979;28;20550;-66
2021/06/25 00:08:04;;;;;;;40.65;9.02;;;742.60;1280.00;;;;;;5073857;28;20421;-67
2021/06/25 00:10:30;;;;;;;36.67;9.55;;;742.60;1280.00;;;;;;5073885;28;20028;-67
2021/06/25 00:12:56;;;;;;;55.75;10.70;;;742.60;1280.00;;;;;;5073516;28;20045;-66
2021/06/25 00:15:23;;;;;;;42.15;8.68;;;742.60;1254.40;;;;;;5073677;28;20145;-66
2021/06/25 00:17:48;;;;;;;51.50;9.68;;;742.60;1280.00;;;;;;5073643;28;20016;-68
2021/06/25 00:20:15;;;;;;;49.97;9.20;;;742.60;1280.00;;;;;;5073602;28;20035;-66
2021/06/25 00:22:43;;;;;;;35.95;9.82;;;742.50;1254.40;;;;;;5073495;28;20041;-66
2021/06/25 00:25:09;;;;;;;47.35;9.02;;;742.50;1280.00;;;;;;5073792;28;20044;-67
2021/06/25 00:27:35;;;;;;;56.45;10.45;;;742.50;1280.00;;;;;;5073484;28;20063;-66
2021/06/25 00:30:01;;;;;;;42.40;11.63;;;742.50;1280.00;;;;;;5073356;28;20419;-66
2021/06/25 00:32:26;;;;;;;51.10;13.68;;;742.50;1280.00;;;;;;5073653;28;20082;-68
2021/06/25 00:34:52;;;;;;;42.58;12.85;;;742.50;1280.00;;;;;;5075869;28;20374;-67
2021/06/25 00:37:18;;;;;;;53.05;12.60;;;742.40;1280.00;;;;;;5077702;28;20024;-66
2021/06/25 00:39:43;;;;;;;53.33;14.75;;;742.40;1280.00;;;;;;5077595;28;20531;-67
2021/06/25 00:42:10;;;;;;;45.50;13.15;;;742.40;1280.00;;;;;;5077351;28;20497;-66
2021/06/25 00:44:40;;;;;;;41.67;11.13;;;742.40;1305.60;;;;;;5077465;28;20516;-66
2021/06/25 00:47:07;;;;;;;48.88;9.57;;;742.40;1305.60;;;;;;5077331;28;20036;-67
2021/06/25 00:49:33;;;;;;;54.47;9.18;;;742.40;1305.60;;;;;;5077662;28;20048;-66
2021/06/25 00:52:00;;;;;;;46.63;10.10;;;742.40;1305.60;;;;;;5077169;28;20481;-67
2021/06/25 00:54:25;;;;;;;43.30;9.30;;;742.40;1280.00;;;;;;5077424;28;20374;-66
2021/06/25 00:56:51;;;;;;;36.65;8.45;;;717.70;1254.40;;;;;;5077230;28;20024;-67
2021/06/25 00:59:17;;;;;;;48.00;9.45;;;717.70;1254.40;;;;;;5077333;28;20028;-67
2021/06/25 01:01:42;;;;;;;43.78;8.05;;;717.70;1254.40;;;;;;5077200;28;20024;-67
2021/06/25 01:04:08;;;;;;;43.80;8.15;;;717.60;1280.00;;;;;;5077232;28;20099;-67
2021/06/25 01:06:34;;;;;;;35.28;8.18;;;717.60;1280.00;;;;;;5077129;28;20389;-66
2021/06/25 01:09:03;;;;;;;34.63;8.30;;;717.60;1280.00;;;;;;5092572;28;20056;-66
2021/06/25 01:11:30;;;;;;;31.58;7.35;;;717.50;1280.00;;;;;;5076868;28;20025;-66
2021/06/25 01:13:57;;;;;;;44.28;8.88;;;717.50;1280.00;;;;;;5092334;28;20420;-66
2021/06/25 01:16:23;;;;;;;38.25;8.05;;;717.50;1280.00;;;;;;5076816;28;20365;-66
2021/06/25 01:18:48;;;;;;;34.40;8.07;;;717.40;1305.60;;;;;;5076786;28;20028;-68
2021/06/25 01:21:14;;;;;;;32.17;8.57;;;717.40;1305.60;;;;;;5076686;28;20031;-67
2021/06/25 01:23:42;;;;;;;37.45;8.30;;;717.30;1305.60;;;;;;5076953;28;20480;-67
2021/06/25 01:26:09;;;;;;;38.42;8.55;;;717.30;1305.60;;;;;;5076777;28;20025;-68
2021/06/25 01:28:35;;;;;;;34.30;8.02;;;717.30;1305.60;;;;;;5076822;28;20025;-66
2021/06/25 01:31:02;;;;;;;36.70;7.47;;;717.40;1305.60;;;;;;5076776;28;20028;-66
2021/06/25 01:33:29;;;;;;;40.55;8.48;;;717.40;1305.60;;;;;;5076932;28;20481;-66
2021/06/25 01:35:55;;;;;;;32.47;8.00;;;717.40;1305.60;;;;;;5076604;28;20024;-66
2021/06/25 01:38:21;;;;;;;45.75;9.52;;;717.30;1305.60;;;;;;5076679;28;20383;-66
2021/06/25 01:40:47;;;;;;;31.73;7.97;;;717.30;1305.60;;;;;;5076516;28;20051;-66
2021/06/25 01:43:13;;;;;;;27.15;7.82;;;717.40;1305.60;;;;;;5076486;28;20075;-66
2021/06/25 01:45:40;;;;;;;36.55;8.75;;;717.40;1305.60;;;;;;5075570;28;20020;-66
2021/06/25 01:48:07;;;;;;;30.33;7.80;;;717.30;1305.60;;;;;;5076209;28;20109;-67
2021/06/25 01:50:39;;;;;;;37.03;8.43;;;717.40;1305.60;;;;;;5076179;28;20028;-67
2021/06/25 01:53:11;;;;;;;34.67;7.60;;;717.40;1305.60;;;;;;5076064;28;20370;-66
2021/06/25 01:55:40;;;;;;;38.40;7.80;;;717.40;1305.60;;;;;;5091930;28;20112;-66
2021/06/25 01:58:12;;;;;;;28.70;7.25;;;717.40;1305.60;;;;;;5076064;28;20445;-67
2021/06/25 02:00:41;;;;;;;43.92;8.52;;;717.40;1305.60;;;;;;5076133;28;20027;-66
2021/06/25 02:03:07;;;;;;;36.22;8.27;;;717.40;1331.20;;;;;;5076067;28;20044;-67
2021/06/25 02:05:33;;;;;;;33.78;8.07;;;717.40;1331.20;;;;;;5076063;28;20063;-66
2021/06/25 02:07:59;;;;;;;35.47;7.63;;;717.40;1331.20;;;;;;5075846;28;20428;-67
2021/06/25 02:10:25;;;;;;;50.90;9.57;;;717.30;1331.20;;;;;;5076009;28;20056;-66
2021/06/25 02:12:51;;;;;;;33.97;6.93;;;717.30;1331.20;;;;;;5075698;28;20082;-66
2021/06/25 02:15:17;;;;;;;47.28;8.77;;;717.30;1356.80;;;;;;5075716;28;20024;-66
2021/06/25 02:17:43;;;;;;;41.53;9.27;;;717.30;1356.80;;;;;;5075605;28;20077;-68
2021/06/25 02:20:09;;;;;;;38.30;8.52;;;717.30;1356.80;;;;;;5075757;28;20039;-66
2021/06/25 02:22:36;;;;;;;39.90;8.70;;;717.20;1382.40;;;;;;5075461;28;20061;-66
2021/06/25 02:25:04;;;;;;;32.08;7.97;;;717.20;1382.40;;;;;;5074986;28;20048;-66
2021/06/25 02:27:30;;;;;;;47.17;9.25;;;717.20;1382.40;;;;;;5075386;28;20083;-66
2021/06/25 02:29:55;;;;;;;35.13;7.88;;;717.20;1408.00;;;;;;5075686;28;20478;-66
2021/06/25 02:32:21;;;;;;;39.45;8.52;;;717.20;1408.00;;;;;;5075591;28;20020;-66
2021/06/25 02:34:47;;;;;;;45.58;9.48;;;717.20;1408.00;;;;;;5075437;28;20052;-67
2021/06/25 02:37:12;;;;;;;43.50;8.23;;;717.20;1433.60;;;;;;5074966;28;20364;-66
2021/06/25 02:39:38;;;;;;;33.95;9.00;;;717.10;1433.60;;;;;;5075411;28;20025;-66
2021/06/25 02:42:05;;;;;;;33.92;8.50;;;717.10;1433.60;;;;;;5075275;28;20021;-66
2021/06/25 02:44:31;;;;;;;55.17;9.57;;;717.10;1433.60;;;;;;5075331;28;20025;-66
2021/06/25 02:46:57;;;;;;;60.95;9.57;;;717.00;1433.60;;;;;;5074847;28;20113;-66
2021/06/25 02:49:23;;;;;;;58.45;10.10;;;717.00;1433.60;;;;;;5075010;28;20116;-66
2021/06/25 02:51:49;;;;;;;42.17;9.52;;;717.10;1459.20;;;;;;5075077;28;20048;-67
2021/06/25 02:54:14;;;;;;;38.58;10.25;;;717.00;1459.20;;;;;;5075130;28;20489;-66
2021/06/25 02:56:40;;;;;;;41.30;9.65;;;717.00;1459.20;;;;;;5073124;28;20466;-66
2021/06/25 02:59:06;;;;;;;43.20;10.07;;;717.00;1459.20;;;;;;5074083;28;20036;-67
2021/06/25 03:01:32;;;;;;;36.90;8.85;;;717.00;1459.20;;;;;;5074296;28;20029;-66
2021/06/25 03:03:58;;;;;;;43.90;9.25;;;717.00;1459.20;;;;;;5074435;28;20025;-66
2021/06/25 03:06:23;;;;;;;35.65;8.80;;;717.00;1459.20;;;;;;5074595;28;20039;-66
2021/06/25 03:08:49;;;;;;;37.42;8.23;;;717.00;1459.20;;;;;;5074973;28;20390;-66
2021/06/25 03:11:15;;;;;;;37.25;9.68;;;717.00;1484.80;;;;;;5073949;28;20032;-67
2021/06/25 03:13:40;;;;;;;39.97;8.25;;;717.00;1484.80;;;;;;5074868;28;20052;-66
2021/06/25 03:16:06;;;;;;;44.45;9.07;;;717.00;1459.20;;;;;;5074649;28;20077;-66
2021/06/25 03:18:32;;;;;;;57.38;8.32;;;717.00;1484.80;;;;;;5074586;28;20031;-66
2021/06/25 03:20:58;;;;;;;47.05;8.55;;;717.00;1484.80;;;;;;5074636;28;20024;-66
2021/06/25 03:23:24;;;;;;;41.25;9.20;;;717.00;1484.80;;;;;;5074411;28;20041;-66
2021/06/25 03:25:50;;;;;;;46.92;8.90;;;717.00;1484.80;;;;;;5074548;28;20462;-67
2021/06/25 03:28:16;;;;;;;37.70;8.68;;;717.00;1510.40;;;;;;5074110;28;20489;-66
2021/06/25 03:30:42;;;;;;;39.03;8.43;;;717.00;1484.80;;;;;;5074467;28;20012;-66
2021/06/25 03:33:08;;;;;;;35.40;8.13;;;717.00;1510.40;;;;;;5074331;28;20028;-67
2021/06/25 03:35:34;;;;;;;38.78;8.82;;;717.00;1510.40;;;;;;5074315;28;20025;-66
2021/06/25 03:38:00;;;;;;;45.30;10.63;;;717.00;1510.40;;;;;;5074464;28;20128;-67
2021/06/25 03:40:30;;;;;;;56.15;10.65;;;717.10;1510.40;;;;;;5074244;28;20047;-66
2021/06/25 03:42:56;;;;;;;36.88;10.73;;;717.20;1510.40;;;;;;5073935;28;20103;-67
2021/06/25 03:45:21;;;;;;;49.30;10.13;;;717.20;1510.40;;;;;;5073471;28;20108;-66
2021/06/25 03:47:47;;;;;;;39.20;10.40;;;717.20;1510.40;;;;;;5072809;28;20060;-66
2021/06/25 03:50:14;;;;;;;33.75;10.07;;;717.30;1510.40;;;;;;5073656;28;20029;-66
2021/06/25 03:52:40;;;;;;;41.65;10.02;;;717.30;1510.40;;;;;;5073417;28;20505;-67
2021/06/25 03:55:11;;;;;;;60.70;10.88;;;717.40;1510.40;;;;;;5073790;28;20021;-67
2021/06/25 03:57:38;;;;;;;49.25;10.43;;;717.40;1484.80;;;;;;5073700;28;20029;-66
2021/06/25 04:00:07;;;;;;;54.78;10.65;;;717.30;1484.80;;;;;;5073859;28;20078;-66
2021/06/25 04:02:32;;;;;;;56.78;10.60;;;717.40;1484.80;;;;;;5073662;28;20126;-66
2021/06/25 04:04:58;;;;;;;50.88;9.77;;;717.40;1484.80;;;;;;5073371;28;20370;-66
2021/06/25 04:07:26;;;;;;;53.10;10.38;;;717.40;1484.80;;;;;;5073481;28;20029;-62
2021/06/25 04:09:52;;;;;;;48.55;10.07;;;717.40;1484.80;;;;;;5074277;28;20434;-62
2021/06/25 04:12:18;;;;;;;30.73;9.07;;;717.40;1484.80;;;;;;5073662;28;20032;-69
2021/06/25 04:14:44;;;;;;;39.83;8.20;;;717.50;1459.20;;;;;;5073857;28;20024;-62
2021/06/25 04:17:09;;;;;;;49.10;10.00;;;717.40;1459.20;;;;;;5073958;28;20064;-61
2021/06/25 04:19:35;;;;;;;43.65;9.73;;;717.50;1459.20;;;;;;5074081;28;20017;-62
2021/06/25 04:22:01;;;;;;;43.85;9.15;;;717.40;1459.20;;;;;;5073646;28;20072;-62
2021/06/25 04:24:27;;;;;;;47.83;9.93;;;717.50;1459.20;;;;;;5073475;28;20036;-70
2021/06/25 04:26:52;;;;;;;46.25;12.35;;;717.50;1459.20;;;;;;5073043;28;20040;-61
2021/06/25 04:29:18;;;;;;;52.22;14.13;;;717.50;1459.20;;;;;;5073794;28;20024;-62
2021/06/25 04:31:51;;;;;;;40.45;13.18;;;717.50;1459.20;;;;;;5073579;28;20028;-61
2021/06/25 04:34:16;;;;;;;48.75;16.80;;;717.40;1459.20;;;;;;5073722;28;20082;-61
2021/06/25 04:36:42;;;;;;;52.10;16.55;;;717.40;1459.20;;;;;;5088426;28;20444;-62
2021/06/25 04:39:08;;;;;;;48.70;14.73;;;717.40;1459.20;;;;;;5073737;28;20020;-61
2021/06/25 04:41:35;;;;;;;53.97;14.07;;;717.50;1459.20;;;;;;5072864;28;20044;-61
2021/06/25 04:44:01;;;;;;;58.45;16.63;;;717.50;1459.20;;;;;;5073472;28;20028;-61
2021/06/25 04:46:27;;;;;;;49.60;15.25;;;717.60;1459.20;;;;;;5073439;28;20035;-62
2021/06/25 04:48:53;;;;;;;46.10;14.20;;;742.40;1484.80;;;;;;5073441;28;20036;-61
2021/06/25 04:51:18;;;;;;;52.88;15.43;;;742.40;1484.80;;;;;;5073346;28;20029;-70
2021/06/25 04:53:44;;;;;;;49.65;14.55;;;742.50;1459.20;;;;;;5073543;28;20116;-63
2021/06/25 04:56:10;;;;;;;59.15;14.20;;;742.50;1459.20;;;;;;5073377;28;20046;-67
2021/06/25 04:58:36;;;;;;;57.38;16.40;;;742.60;1459.20;;;;;;5073309;28;20470;-62
2021/06/25 05:01:02;;;;;;;48.78;17.38;;;742.60;1459.20;;;;;;5089220;28;20033;-69
2021/06/25 05:03:29;;;;;;;54.97;19.95;;;742.60;1459.20;;;;;;5073358;28;20056;-61
2021/06/25 05:05:55;;;;;;;59.45;17.95;;;742.60;1459.20;;;;;;5073442;28;20070;-61
2021/06/25 05:08:20;;;;;;;54.30;16.33;;;742.60;1484.80;;;;;;5073206;28;20044;-61
2021/06/25 05:10:46;;;;;;;48.53;16.02;;;742.70;1484.80;;;;;;5073310;28;20050;-61
2021/06/25 05:13:15;;;;;;;59.78;17.73;;;742.80;1459.20;;;;;;5073043;28;20020;-61
2021/06/25 05:15:40;;;;;;;37.03;15.90;;;742.90;1459.20;;;;;;5073539;28;20031;-61
2021/06/25 05:18:12;;;;;;;54.10;14.73;;;743.00;1459.20;;;;;;5073183;28;20017;-61
2021/06/25 05:20:39;;;;;;;44.50;13.32;;;743.10;1459.20;;;;;;5074627;28;20370;-62
2021/06/25 05:23:04;;;;;;;48.83;10.68;;;743.10;1433.60;;;;;;5076543;28;20044;-69
2021/06/25 05:25:30;;;;;;;50.78;10.05;;;743.30;1433.60;;;;;;5076663;28;20032;-61
2021/06/25 05:27:56;;;;;;;41.45;8.52;;;768.00;1433.60;;;;;;5076666;28;20040;-61
2021/06/25 05:30:21;;;;;;;42.88;9.00;;;768.10;1408.00;;;;;;5076722;28;20374;-70
2021/06/25 05:32:47;;;;;;;29.05;7.85;;;768.20;1408.00;;;;;;5076706;28;20024;-61
2021/06/25 05:35:13;;;;;;;35.67;9.13;;;768.30;1408.00;;;;;;5076722;28;20110;-61
2021/06/25 05:37:38;;;;;;;37.33;9.07;;;768.50;1382.40;;;;;;5076629;28;20028;-61
2021/06/25 05:40:05;;;;;;;38.40;8.68;;;768.60;1382.40;;;;;;5076566;28;20094;-68
2021/06/25 05:42:31;;;;;;;41.70;8.30;;;768.70;1356.80;;;;;;5076179;28;20115;-62
2021/06/25 05:44:57;;;;;;;43.92;8.60;;;768.90;1356.80;;;;;;5076517;28;20051;-62
2021/06/25 05:47:22;;;;;;;38.88;8.55;;;793.60;1382.40;;;;;;5076421;28;20037;-62
2021/06/25 05:49:48;;;;;;;34.40;8.25;;;793.80;1356.80;;;;;;5076083;28;20093;-64
2021/06/25 05:52:14;;;;;;;28.13;7.30;;;793.90;1356.80;;;;;;5076134;28;20052;-61
2021/06/25 05:54:40;;;;;;;33.15;7.15;;;794.10;1331.20;;;;;;5076515;28;20048;-61
2021/06/25 05:57:06;;;;;;;39.28;7.32;;;794.30;1331.20;;;;;;5076028;28;20074;-61
2021/06/25 05:59:33;;;;;;;31.73;8.70;;;794.40;1305.60;;;;;;5076731;28;20459;-62
2021/06/25 06:01:59;;;;;;;41.42;7.40;;;794.50;1305.60;;;;;;5075995;28;20064;-62
2021/06/25 06:04:25;;;;;;;38.15;7.47;;;794.50;1280.00;;;;;;5075759;28;20052;-61
2021/06/25 06:06:51;;;;;;;35.10;8.43;;;819.20;1254.40;;;;;;5075770;28;20497;-70
2021/06/25 06:09:16;;;;;;;42.70;7.90;;;819.30;1254.40;;;;;;5075993;28;20036;-61
2021/06/25 06:11:42;;;;;;;40.65;7.60;;;819.50;1254.40;;;;;;5075928;28;20062;-62
2021/06/25 06:14:08;;;;;;;42.55;8.73;;;819.60;1228.80;;;;;;5075890;28;20462;-62
2021/06/25 06:16:34;;;;;;;40.88;7.53;;;819.70;1228.80;;;;;;5091559;28;20033;-61
2021/06/25 06:19:00;;;;;;;39.00;8.50;;;819.80;1203.20;;;;;;5075864;28;20024;-62
2021/06/25 06:21:25;;;;;;;43.92;8.23;;;819.90;1203.20;;;;;;5075614;28;20040;-63
2021/06/25 06:34:33;;;;;;;38.42;8.77;;;845.40;1152.00;;;;;;5075122;28;20351;-68
2021/06/25 06:36:59;;;;;;;35.80;7.63;;;845.60;1126.40;;;;;;5075546;28;20048;-62
2021/06/25 06:39:25;;;;;;;46.80;8.60;;;870.40;1126.40;;;;;;5075384;28;20021;-61
2021/06/25 06:41:51;;;;;;;30.23;7.70;;;870.60;1100.80;;;;;;5075166;28;20082;-62
2021/06/25 06:44:16;;;;;;;32.65;7.75;;;870.60;1100.80;;;;;;5075282;28;20378;-62
2021/06/25 06:46:42;;;;;;;41.30;8.73;;;870.80;1100.80;;;;;;5075521;28;20040;-62
2021/06/25 06:49:08;;;;;;;41.25;8.93;;;870.90;1100.80;;;;;;5075052;28;20039;-62
2021/06/25 06:51:34;;;;;;;32.53;8.18;;;871.00;1075.20;;;;;;5074988;28;20025;-62
2021/06/25 06:54:00;;;;;;;40.10;8.65;;;871.10;1075.20;;;;;;5075207;28;20033;-62
2021/06/25 06:56:27;;;;;;;42.03;7.63;;;871.20;1075.20;;;;;;5075172;28;20024;-71
2021/06/25 06:58:53;;;;;;;26.30;6.25;;;871.20;1049.60;;;;;;5075014;28;20039;-61
2021/06/25 07:01:21;;;;;;;36.50;7.13;;;871.30;1024.00;;;;;;5074812;28;20055;-70
2021/06/25 07:03:47;;;;;;;37.47;7.35;;;896.00;1024.00;;;;;;5074850;28;20021;-62
2021/06/25 07:06:14;;;;;;;34.50;6.45;;;896.20;998.40;;;;;;5074924;28;20017;-62
2021/06/25 07:08:40;;;;;;;31.70;7.43;;;896.50;998.40;;;;;;5074934;28;20032;-62
2021/06/25 07:11:06;;;;;;;26.38;7.18;;;896.70;972.80;;;;;;5074754;28;20028;-61
2021/06/25 07:13:31;;;;;;;33.40;7.45;;;896.80;972.80;;;;;;5074451;28;20054;-62
2021/06/25 07:15:57;;;;;;;31.45;6.68;;;921.60;998.40;;;;;;5074733;28;20107;-62
2021/06/25 07:18:23;;;;;;;27.45;6.68;;;921.70;998.40;;;;;;5074461;28;20021;-67
2021/06/25 07:20:49;;;;;;;28.65;6.90;;;922.00;998.40;;;;;;5074684;28;20032;-62
2021/06/25 07:23:15;;;;;;;28.08;6.72;;;922.00;972.80;;;;;;5074377;28;20472;-62
2021/06/25 07:25:41;;;;;;;29.80;6.82;;;922.10;947.20;;;;;;5074644;28;20111;-70
2021/06/25 07:28:07;;;;;;;36.92;6.90;;;922.30;921.60;;;;;;5074113;28;20438;-62
2021/06/25 07:30:33;;;;;;;33.78;7.18;;;922.50;921.60;;;;;;5072771;28;20450;-61
2021/06/25 07:33:00;;;;;;;29.90;6.38;;;922.50;921.60;;;;;;5072230;28;20725;-62
2021/06/25 07:35:26;;;;;;;30.05;6.20;;;947.20;896.00;;;;;;5072746;28;20040;-62
2021/06/25 07:37:51;;;;;;;31.77;6.13;;;947.30;896.00;;;;;;5072852;28;20386;-63
2021/06/25 07:40:17;;;;;;;29.40;7.20;;;947.40;921.60;;;;;;5072665;28;20482;-63
2021/06/25 07:42:43;;;;;;;24.80;5.93;;;947.50;921.60;;;;;;5072214;28;20032;-63
2021/06/25 07:45:10;;;;;;;28.48;6.45;;;947.70;896.00;;;;;;5072566;28;20450;-62
2021/06/25 07:47:42;;;;;;;28.77;6.05;;;947.80;896.00;;;;;;5072580;28;20037;-67
2021/06/25 07:50:18;;;;;;;40.47;7.70;;;948.00;896.00;;;;;;5070328;28;20021;-63
2021/06/25 07:52:44;;;;;;;28.95;6.90;;;948.10;896.00;;;;;;5071347;28;20039;-63
2021/06/25 07:55:12;;;;;;;28.55;6.28;;;972.80;921.60;;;;;;5072608;28;20103;-66
2021/06/25 07:57:41;;;;;;;30.33;6.68;;;972.90;921.60;;;;;;5072088;28;20051;-63
2021/06/25 08:00:09;;;;;;;31.05;6.55;;;973.20;896.00;;;;;;5072394;28;20122;-71
2021/06/25 08:02:35;;;;;;;31.60;7.45;;;973.30;896.00;;;;;;5072559;28;20095;-61
2021/06/25 08:05:01;;;;;;;31.60;6.80;;;973.30;870.40;;;;;;5069527;28;20526;-70
2021/06/25 08:07:27;;;;;;;27.50;6.57;;;973.40;870.40;;;;;;5072302;28;20039;-64
2021/06/25 08:09:53;;;;;;;31.67;7.07;;;973.60;896.00;;;;;;5072655;28;20029;-62
2021/06/25 08:12:18;;;;;;;24.48;6.07;;;973.70;896.00;;;;;;5072054;28;20036;-66
2021/06/25 08:14:44;;;;;;;32.78;7.25;;;998.40;896.00;;;;;;5072305;28;20471;-61
2021/06/25 08:17:10;;;;;;;20.98;6.07;;;998.60;870.40;;;;;;5072542;28;20027;-69
2021/06/25 08:19:36;;;;;;;25.70;6.57;;;998.60;870.40;;;;;;5072267;28;20409;-72
2021/06/25 08:22:02;;;;;;;30.38;5.82;;;998.70;844.80;;;;;;5072186;28;20045;-68
2021/06/25 08:24:30;;;;;;;31.25;6.07;;;998.70;844.80;;;;;;5072415;28;20033;-66
2021/06/25 08:26:56;;;;;;;26.25;6.63;;;998.70;844.80;;;;;;5072007;28;20032;-62
2021/06/25 08:29:22;;;;;;;25.70;7.07;;;998.80;844.80;;;;;;5072330;28;20032;-63
2021/06/25 08:31:48;;;;;;;26.48;6.70;;;998.80;844.80;;;;;;5072272;28;20420;-71
2021/06/25 08:34:14;;;;;;;38.15;7.22;;;998.90;819.20;;;;;;5072318;28;20083;-71
2021/06/25 08:36:41;;;;;;;24.42;6.45;;;998.90;819.20;;;;;;5071921;28;20111;-65
2021/06/25 08:39:07;;;;;;;30.83;6.43;;;999.00;819.20;;;;;;5072072;28;20031;-62
2021/06/25 08:41:34;;;;;;;24.70;5.43;;;999.00;819.20;;;;;;5072192;28;20028;-71
2021/06/25 08:44:01;;;;;;;23.50;5.68;;;999.10;819.20;;;;;;5071832;28;20040;-71
2021/06/25 08:46:32;;;;;;;23.85;6.03;;;1024.00;793.60;;;;;;5072647;28;20347;-71
2021/06/25 08:49:02;;;;;;;26.75;6.05;;;1024.00;793.60;;;;;;5072970;28;20043;-69
2021/06/25 08:51:28;;;;;;;25.30;6.57;;;1024.00;793.60;;;;;;5072859;28;20359;-62
2021/06/25 08:53:54;;;;;;;34.63;6.13;;;1024.00;793.60;;;;;;5072765;28;20036;-72
2021/06/25 08:56:20;;;;;;;27.80;5.90;;;1024.10;768.00;;;;;;5075794;28;20016;-65
2021/06/25 08:58:46;;;;;;;24.58;5.03;;;1024.10;768.00;;;;;;5076464;28;20025;-68
2021/06/25 09:01:15;;;;;;;32.05;5.38;;;1024.20;768.00;;;;;;5076820;28;20103;-63
2021/06/25 09:03:49;;;;;;;21.27;5.53;;;1024.20;768.00;;;;;;5076669;28;20036;-66
2021/06/25 09:06:15;;;;;;;27.67;5.45;;;1024.20;768.00;;;;;;5076521;28;20017;-64
2021/06/25 09:08:42;;;;;;;34.10;6.05;;;1024.10;768.00;;;;;;5091927;28;20508;-70
2021/06/25 09:11:24;;;;;;;35.78;6.40;;;1024.00;768.00;;;;;;5076261;28;20020;-71
2021/06/25 09:14:03;;;;;;;30.75;6.50;;;999.30;768.00;;;;;;5074166;28;20485;-69
2021/06/25 09:16:29;;;;;;;26.95;6.57;;;999.10;793.60;;;;;;5073977;28;20058;-63
2021/06/25 09:18:55;;;;;;;31.90;5.93;;;999.30;793.60;;;;;;5076016;28;20047;-64
2021/06/25 09:21:21;;;;;;;27.67;6.20;;;1024.10;768.00;;;;;;5075131;28;20117;-69
2021/06/25 09:23:46;;;;;;;25.63;6.78;;;1024.30;768.00;;;;;;5072649;28;20021;-63
2021/06/25 09:26:13;;;;;;;31.00;5.75;;;1024.20;768.00;;;;;;5090262;28;20079;-63
2021/06/25 09:28:41;;;;;;;22.40;6.47;;;1024.20;768.00;;;;;;5075449;28;20037;-66
2021/06/25 09:31:15;;;;;;;35.33;5.88;;;1024.30;768.00;;;;;;5075205;28;20013;-72
2021/06/25 09:33:54;;;;;;;26.67;5.95;;;1024.50;768.00;;;;;;5075092;28;20025;-71
2021/06/25 09:36:32;;;;;;;34.90;6.80;;;1024.60;768.00;;;;;;5074153;28;20104;-71
2021/06/25 09:39:13;;;;;;;30.00;6.53;;;1024.80;768.00;;;;;;5074264;28;20024;-61
2021/06/25 09:41:44;;;;;;;31.05;6.68;;;1049.60;768.00;;;;;;5073871;28;20458;-62
2021/06/25 09:44:18;;;;;;;34.28;6.55;;;1049.70;768.00;;;;;;5072906;28;20059;-62
2021/06/25 09:46:45;;;;;;;32.45;6.55;;;1050.00;768.00;;;;;;5074702;28;20031;-72
2021/06/25 09:49:13;;;;;;;28.33;6.68;;;1050.00;768.00;;;;;;5074813;28;20025;-71
2021/06/25 09:51:57;;;;;;;28.92;6.30;;;1050.10;768.00;;;;;;5074495;28;20032;-62
2021/06/25 09:54:23;;;;;;;42.80;7.00;;;1050.10;742.40;;;;;;5075349;28;20036;-63
2021/06/25 09:57:01;;;;;;;27.60;6.28;;;1050.10;742.40;;;;;;5071516;28;20546;-62
2021/06/25 09:59:59;;;;;;;26.60;6.32;;;1050.20;768.00;;;;;;5074799;28;20071;-69
2021/06/25 10:02:24;;;;;;;28.38;6.38;;;1050.30;768.00;;;;;;5072681;28;20043;-72
2021/06/25 10:04:55;;;;;;;30.27;5.78;;;1050.50;742.40;;;;;;5071828;28;20024;-63
2021/06/25 10:07:25;;;;;;;29.25;5.38;;;1050.50;716.80;;;;;;5074006;28;20557;-71
2021/06/25 10:09:53;;;;;;;23.05;5.07;;;1050.50;716.80;;;;;;5072208;28;20058;-65
2021/06/25 10:12:21;;;;;;;35.85;6.13;;;1050.40;716.80;;;;;;5074494;28;20104;-62
2021/06/25 10:14:50;;;;;;;27.90;5.47;;;1050.40;716.80;;;;;;5074560;28;20104;-66
2021/06/25 10:17:17;;;;;;;18.55;5.28;;;1050.50;691.20;;;;;;5075061;28;20021;-62
2021/06/25 10:19:45;;;;;;;20.45;4.82;;;1075.20;691.20;;;;;;5076054;28;20107;-71
2021/06/25 10:22:13;;;;;;;25.20;5.57;;;1075.20;691.20;;;;;;5075427;28;20502;-61
2021/06/25 10:24:44;;;;;;;19.63;5.45;;;1075.20;691.20;;;;;;5074117;28;20127;-62
2021/06/25 10:27:11;;;;;;;26.48;6.13;;;1075.30;691.20;;;;;;5075250;28;20105;-65
2021/06/25 10:29:37;;;;;;;26.00;5.18;;;1075.50;691.20;;;;;;5075714;28;20103;-64
2021/06/25 10:32:08;;;;;;;18.58;5.28;;;1075.50;665.60;;;;;;5075416;28;20028;-66
2021/06/25 10:34:39;;;;;;;18.45;5.28;;;1075.60;665.60;;;;;;5075433;28;20137;-70
2021/06/25 10:37:07;;;;;;;23.23;5.55;;;1075.60;665.60;;;;;;5075460;28;20025;-71
2021/06/25 10:39:34;;;;;;;25.17;4.93;;;1075.60;691.20;;;;;;5075410;28;20035;-71
2021/06/25 10:42:09;;;;;;;21.60;5.90;;;1075.60;691.20;;;;;;5075279;28;20103;-69
2021/06/25 10:44:36;;;;;;;31.90;6.32;;;1075.70;665.60;;;;;;5074378;28;20020;-72
2021/06/25 10:47:29;;;;;;;22.92;5.40;;;1075.70;665.60;;;;;;5072196;28;20041;-62
2021/06/25 10:50:01;;;;;;;24.70;5.30;;;1075.70;665.60;;;;;;5071310;28;20545;-63
2021/06/25 10:52:27;;;;;;;29.55;6.65;;;1075.80;665.60;;;;;;5072779;28;20032;-73
2021/06/25 10:55:12;;;;;;;34.95;6.60;;;1075.80;640.00;;;;;;5074309;28;20045;-66
2021/06/25 10:57:58;;;;;;;19.42;5.30;;;1075.80;640.00;;;;;;5074583;28;20474;-69
2021/06/25 11:00:25;;;;;;;28.75;5.18;;;1075.80;665.60;;;;;;5074029;28;20384;-63
2021/06/25 11:02:51;;;;;;;22.33;5.03;;;1075.80;665.60;;;;;;5074452;28;20029;-72
2021/06/25 11:05:26;;;;;;;31.67;5.68;;;1075.80;665.60;;;;;;5074512;28;20421;-62
2021/06/25 11:07:56;;;;;;;25.75;5.75;;;1075.80;665.60;;;;;;5074102;28;20536;-72
2021/06/25 11:10:32;;;;;;;23.08;5.72;;;1075.70;640.00;;;;;;5074331;28;20025;-64
2021/06/25 11:13:14;;;;;;;19.83;5.30;;;1075.70;640.00;;;;;;5074294;28;20024;-62
2021/06/25 11:15:50;;;;;;;23.13;5.82;;;1075.80;640.00;;;;;;5073632;28;20028;-63
2021/06/25 11:18:24;;;;;;;27.67;5.45;;;1075.90;640.00;;;;;;5073822;28;20077;-73
2021/06/25 11:20:53;;;;;;;19.70;6.47;;;1075.90;640.00;;;;;;5074724;28;20021;-73
2021/06/25 11:23:37;;;;;;;27.05;6.30;;;1075.90;665.60;;;;;;5074290;28;20060;-62
2021/06/25 11:26:15;;;;;;;27.33;6.00;;;1075.90;665.60;;;;;;5074431;28;20021;-68
2021/06/25 11:28:43;;;;;;;29.25;5.90;;;1075.90;665.60;;;;;;5074481;28;20043;-62
2021/06/25 11:31:16;;;;;;;24.20;5.25;;;1075.80;665.60;;;;;;5074484;28;20459;-62
2021/06/25 11:33:51;;;;;;;23.85;5.07;;;1075.90;640.00;;;;;;5073164;28;20383;-73
2021/06/25 11:36:28;;;;;;;18.88;4.97;;;1075.90;640.00;;;;;;5073627;28;20474;-73
2021/06/25 11:38:54;;;;;;;27.40;5.57;;;1075.90;665.60;;;;;;5054225;28;20074;-68
2021/06/25 11:41:21;;;;;;;23.65;5.68;;;1100.80;691.20;;;;;;5054286;28;20029;-62
2021/06/25 11:43:50;;;;;;;32.95;6.18;;;1076.00;665.60;;;;;;5053994;28;20534;-63
2021/06/25 11:46:17;;;;;;;21.05;5.97;;;1076.00;640.00;;;;;;5054318;28;20033;-62
2021/06/25 11:48:44;;;;;;;28.40;6.00;;;1100.80;640.00;;;;;;5054006;28;20033;-62
2021/06/25 11:51:12;;;;;;;26.30;6.03;;;1100.80;640.00;;;;;;5054150;28;20096;-73
2021/06/25 11:53:42;;;;;;;25.05;5.35;;;1100.90;640.00;;;;;;5054119;28;20029;-63
2021/06/25 11:56:20;;;;;;;34.60;6.13;;;1100.80;640.00;;;;;;5054078;28;20032;-62
2021/06/25 11:59:15;;;;;;;29.33;6.70;;;1100.80;614.40;;;;;;5054248;28;20403;-73
2021/06/25 12:01:53;;;;;;;29.73;6.20;;;1100.80;614.40;;;;;;5053884;28;20482;-63
2021/06/25 12:04:42;;;;;;;27.73;5.88;;;1100.80;614.40;;;;;;5053917;28;20087;-73
2021/06/25 12:07:13;;;;;;;25.90;4.60;;;1100.80;614.40;;;;;;5053860;28;20029;-69
2021/06/25 12:09:48;;;;;;;28.42;5.45;;;1100.80;614.40;;;;;;5053917;28;20036;-62
2021/06/25 12:12:35;;;;;;;21.63;5.75;;;1076.00;588.80;;;;;;5053926;28;20417;-63
2021/06/25 12:15:13;;;;;;;20.23;5.70;;;1100.80;614.40;;;;;;5053778;28;20100;-64
2021/06/25 12:17:46;;;;;;;18.65;4.50;;;1076.00;614.40;;;;;;5053652;28;20020;-62
2021/06/25 12:20:30;;;;;;;18.60;5.40;;;1076.00;614.40;;;;;;5059646;28;20032;-62
2021/06/25 12:23:02;;;;;;;29.85;5.18;;;1076.00;614.40;;;;;;5073487;28;20068;-63